Time;durP1;ratioP1;P1;durP2;ratioP2;P2;SDS_P1;SDS_P2;PMS_P1;PMS_P2;Temp;Humidity;BMP_temperature;BMP_pressure;BME280_temperature;BME280_humidity;BME280_pressure;Samples;Min_cycle;Max_cycle;Signal;HPM_P1;HPM_P2
2021/08/14 00:00:33;;;;;;;;;;;;;;;;;;2619660;54;19945;-73
2021/08/14 00:02:59;;;;;;;;;;;;;;;;;;2619079;46;19963;-75
2021/08/14 00:05:25;;;;;;;;;;;;;;;;;;2619483;54;20034;-73
2021/08/14 00:07:51;;;;;;;;;;;;;;;;;;2619000;47;20444;-73
2021/08/14 00:10:17;;;;;;;;;;;;;;;;;;2619884;54;19946;-75
2021/08/14 00:12:43;;;;;;;;;;;;;;;;;;2619370;54;20024;-73
2021/08/14 00:15:09;;;;;;;;;;;;;;;;;;2619764;39;20308;-73
2021/08/14 00:17:35;;;;;;;;;;;;;;;;;;2619838;54;19938;-73
2021/08/14 00:20:00;;;;;;;;;;;;;;;;;;2619402;47;19947;-73
2021/08/14 00:22:26;;;;;;;;;;;;;;;;;;2619675;54;19950;-73
2021/08/14 00:24:52;;;;;;;;;;;;;;;;;;2619906;54;19969;-74
2021/08/14 00:27:18;;;;;;;;;;;;;;;;;;2619915;54;20026;-73
2021/08/14 00:29:45;;;;;;;;;;;;;;;;;;2619161;54;19957;-72
2021/08/14 00:32:10;;;;;;;;;;;;;;;;;;2618864;46;20107;-74
2021/08/14 00:34:36;;;;;;;;;;;;;;;;;;2619508;39;20343;-76
2021/08/14 00:37:02;;;;;;;;;;;;;;;;;;2618979;46;19939;-73
2021/08/14 00:39:28;;;;;;;;;;;;;;;;;;2619097;47;19946;-74
2021/08/14 00:41:54;;;;;;;;;;;;;;;;;;2619665;54;19978;-74
2021/08/14 00:44:20;;;;;;;;;;;;;;;;;;2619790;54;20565;-72
2021/08/14 00:46:46;;;;;;;;;;;;;;;;;;2619733;54;19943;-74
2021/08/14 00:49:12;;;;;;;;;;;;;;;;;;2619832;54;19938;-72
2021/08/14 00:51:38;;;;;;;;;;;;;;;;;;2619819;54;19945;-73
2021/08/14 00:54:04;;;;;;;;;;;;;;;;;;2621089;39;20355;-74
2021/08/14 00:56:30;;;;;;;;;;;;;;;;;;2619282;46;19962;-73
2021/08/14 00:58:55;;;;;;;;;;;;;;;;;;2619854;54;19939;-74
2021/08/14 01:03:50;;;;;;;;;;;;;;;;;;2619471;54;20026;-73
2021/08/14 01:06:16;;;;;;;;;;;;;;;;;;2619718;39;20380;-73
2021/08/14 01:08:41;;;;;;;;;;;;;;;;;;2618567;47;19941;-73
2021/08/14 01:11:07;;;;;;;;;;;;;;;;;;2618987;54;19973;-73
2021/08/14 01:13:33;;;;;;;;;;;;;;;;;;2619175;54;19986;-74
2021/08/14 01:15:59;;;;;;;;;;;;;;;;;;2619141;54;20026;-73
2021/08/14 01:18:25;;;;;;;;;;;;;;;;;;2619219;54;20425;-73
2021/08/14 01:20:51;;;;;;;;;;;;;;;;;;2619610;54;19962;-75
2021/08/14 01:23:17;;;;;;;;;;;;;;;;;;2620011;54;19943;-73
2021/08/14 01:25:43;;;;;;;;;;;;;;;;;;2620124;54;19946;-73
2021/08/14 01:28:09;;;;;;;;;;;;;;;;;;2619582;54;19943;-72
2021/08/14 01:30:35;;;;;;;;;;;;;;;;;;2620195;54;19935;-73
2021/08/14 01:33:01;;;;;;;;;;;;;;;;;;2619392;47;19935;-74
2021/08/14 01:35:27;;;;;;;;;;;;;;;;;;2619922;54;19959;-73
2021/08/14 01:37:53;;;;;;;;;;;;;;;;;;2619884;54;19934;-72
2021/08/14 01:40:18;;;;;;;;;;;;;;;;;;2619264;46;19942;-74
2021/08/14 01:42:44;;;;;;;;;;;;;;;;;;2619304;54;20394;-73
2021/08/14 01:45:10;;;;;;;;;;;;;;;;;;2619858;54;19934;-72
2021/08/14 01:47:36;;;;;;;;;;;;;;;;;;2619848;54;19967;-72
2021/08/14 01:50:02;;;;;;;;;;;;;;;;;;2619823;54;19962;-73
2021/08/14 01:52:28;;;;;;;;;;;;;;;;;;2619861;54;20427;-74
2021/08/14 01:54:54;;;;;;;;;;;;;;;;;;2619347;47;20242;-74
2021/08/14 01:57:20;;;;;;;;;;;;;;;;;;2619029;47;19935;-72
2021/08/14 01:59:46;;;;;;;;;;;;;;;;;;2619873;54;19938;-73
2021/08/14 02:02:12;;;;;;;;;;;;;;;;;;2619505;54;20411;-73
2021/08/14 02:04:38;;;;;;;;;;;;;;;;;;2619275;47;19938;-74
2021/08/14 02:07:04;;;;;;;;;;;;;;;;;;2619227;47;19939;-73
2021/08/14 02:09:30;;;;;;;;;;;;;;;;;;2619556;54;19945;-71
2021/08/14 02:11:56;;;;;;;;;;;;;;;;;;2619081;47;19961;-71
2021/08/14 02:14:21;;;;;;;;;;;;;;;;;;2619268;46;20435;-73
2021/08/14 02:16:47;;;;;;;;;;;;;;;;;;2619620;54;19942;-74
2021/08/14 02:19:13;;;;;;;;;;;;;;;;;;2619700;54;19942;-74
2021/08/14 02:21:39;;;;;;;;;;;;;;;;;;2619694;54;19969;-73
2021/08/14 02:24:05;;;;;;;;;;;;;;;;;;2619553;54;20014;-74
2021/08/14 02:26:31;;;;;;;;;;;;;;;;;;2619848;54;19941;-74
2021/08/14 02:28:57;;;;;;;;;;;;;;;;;;2620119;54;19935;-73
2021/08/14 02:31:23;;;;;;;;;;;;;;;;;;2619523;54;19942;-73
2021/08/14 02:33:49;;;;;;;;;;;;;;;;;;2618972;47;19935;-74
2021/08/14 02:36:15;;;;;;;;;;;;;;;;;;2619422;39;20358;-73
2021/08/14 02:38:41;;;;;;;;;;;;;;;;;;2619561;54;19938;-74
2021/08/14 02:41:07;;;;;;;;;;;;;;;;;;2619521;54;20429;-74
2021/08/14 02:43:33;;;;;;;;;;;;;;;;;;2618983;46;19941;-75
2021/08/14 02:46:00;;;;;;;;;;;;;;;;;;2619499;54;19961;-74
2021/08/14 02:48:26;;;;;;;;;;;;;;;;;;2619676;54;19939;-74
2021/08/14 02:50:52;;;;;;;;;;;;;;;;;;2619583;54;19942;-74
2021/08/14 02:53:18;;;;;;;;;;;;;;;;;;2619567;54;19935;-73
2021/08/14 02:55:44;;;;;;;;;;;;;;;;;;2619688;54;19934;-73
2021/08/14 02:58:10;;;;;;;;;;;;;;;;;;2619736;54;19939;-73
2021/08/14 03:00:36;;;;;;;;;;;;;;;;;;2619658;54;19939;-73
2021/08/14 03:03:02;;;;;;;;;;;;;;;;;;2619521;54;19986;-74
2021/08/14 03:05:28;;;;;;;;;;;;;;;;;;2619609;54;19934;-74
2021/08/14 03:07:54;;;;;;;;;;;;;;;;;;2619447;54;19938;-74
2021/08/14 03:10:20;;;;;;;;;;;;;;;;;;2618853;51;19984;-73
2021/08/14 03:12:45;;;;;;;;;;;;;;;;;;2619516;54;19935;-75
2021/08/14 03:15:11;;;;;;;;;;;;;;;;;;2619603;54;19942;-73
2021/08/14 03:17:37;;;;;;;;;;;;;;;;;;2619184;47;20066;-74
2021/08/14 03:20:03;;;;;;;;;;;;;;;;;;2618974;47;20407;-74
2021/08/14 03:22:29;;;;;;;;;;;;;;;;;;2618916;47;19946;-76
2021/08/14 03:24:55;;;;;;;;;;;;;;;;;;2618906;47;20399;-73
2021/08/14 03:27:21;;;;;;;;;;;;;;;;;;2618934;47;19946;-73
2021/08/14 03:29:47;;;;;;;;;;;;;;;;;;2619493;54;19938;-73
2021/08/14 03:32:13;;;;;;;;;;;;;;;;;;2619516;54;19938;-73
2021/08/14 03:34:39;;;;;;;;;;;;;;;;;;2619543;54;19943;-74
2021/08/14 03:37:05;;;;;;;;;;;;;;;;;;2619752;54;19940;-74
2021/08/14 03:39:31;;;;;;;;;;;;;;;;;;2618963;47;19946;-74
2021/08/14 03:41:56;;;;;;;;;;;;;;;;;;2619668;54;19938;-73
2021/08/14 03:44:22;;;;;;;;;;;;;;;;;;2619447;54;19934;-74
2021/08/14 03:46:48;;;;;;;;;;;;;;;;;;2618941;46;20458;-74
2021/08/14 03:49:15;;;;;;;;;;;;;;;;;;2618942;47;20188;-74
2021/08/14 03:51:41;;;;;;;;;;;;;;;;;;2618791;47;19939;-74
2021/08/14 03:54:07;;;;;;;;;;;;;;;;;;2619693;54;19935;-73
2021/08/14 03:56:33;;;;;;;;;;;;;;;;;;2619523;54;19957;-75
2021/08/14 03:58:58;;;;;;;;;;;;;;;;;;2619399;54;19935;-75
2021/08/14 04:01:24;;;;;;;;;;;;;;;;;;2618906;47;19972;-73
2021/08/14 04:03:50;;;;;;;;;;;;;;;;;;2619240;54;19938;-74
2021/08/14 04:06:16;;;;;;;;;;;;;;;;;;2618882;47;19961;-74
2021/08/14 04:08:42;;;;;;;;;;;;;;;;;;2619623;54;19946;-75
2021/08/14 04:11:08;;;;;;;;;;;;;;;;;;2619518;54;19935;-74
2021/08/14 04:13:34;;;;;;;;;;;;;;;;;;2619205;54;19934;-74
2021/08/14 04:16:00;;;;;;;;;;;;;;;;;;2619167;54;19986;-73
2021/08/14 04:18:26;;;;;;;;;;;;;;;;;;2619311;54;19962;-73
2021/08/14 04:20:52;;;;;;;;;;;;;;;;;;2619249;54;20463;-74
2021/08/14 04:23:18;;;;;;;;;;;;;;;;;;2619366;54;20407;-74
2021/08/14 04:25:44;;;;;;;;;;;;;;;;;;2618715;47;19942;-72
2021/08/14 04:28:09;;;;;;;;;;;;;;;;;;2619454;54;19942;-74
2021/08/14 04:30:35;;;;;;;;;;;;;;;;;;2618941;47;20034;-74
2021/08/14 04:33:01;;;;;;;;;;;;;;;;;;2618819;47;19954;-73
2021/08/14 04:35:27;;;;;;;;;;;;;;;;;;2619538;54;19963;-75
2021/08/14 04:37:53;;;;;;;;;;;;;;;;;;2618945;47;20022;-74
2021/08/14 04:40:19;;;;;;;;;;;;;;;;;;2619967;39;20304;-74
2021/08/14 04:42:45;;;;;;;;;;;;;;;;;;2618868;47;19945;-74
2021/08/14 04:45:11;;;;;;;;;;;;;;;;;;2619083;39;20291;-75
2021/08/14 04:47:37;;;;;;;;;;;;;;;;;;2619496;54;19946;-74
2021/08/14 04:50:03;;;;;;;;;;;;;;;;;;2619380;54;19989;-74
2021/08/14 04:52:29;;;;;;;;;;;;;;;;;;2618587;47;20030;-75
2021/08/14 04:54:55;;;;;;;;;;;;;;;;;;2619248;54;20025;-75
2021/08/14 04:57:21;;;;;;;;;;;;;;;;;;2618943;46;19939;-74
2021/08/14 04:59:47;;;;;;;;;;;;;;;;;;2619316;54;19939;-74
2021/08/14 05:02:13;;;;;;;;;;;;;;;;;;2618852;54;19938;-74
2021/08/14 05:04:39;;;;;;;;;;;;;;;;;;2618480;47;19946;-74
2021/08/14 05:07:05;;;;;;;;;;;;;;;;;;2618589;47;19946;-74
2021/08/14 05:09:31;;;;;;;;;;;;;;;;;;2618623;47;19942;-74
2021/08/14 05:11:57;;;;;;;;;;;;;;;;;;2619380;54;20470;-74
2021/08/14 05:14:23;;;;;;;;;;;;;;;;;;2619424;54;19939;-73
2021/08/14 05:16:49;;;;;;;;;;;;;;;;;;2619232;54;19935;-75
2021/08/14 05:19:15;;;;;;;;;;;;;;;;;;2620071;39;20365;-75
2021/08/14 05:21:41;;;;;;;;;;;;;;;;;;2619300;54;19939;-74
2021/08/14 05:24:07;;;;;;;;;;;;;;;;;;2619178;54;20118;-75
2021/08/14 05:26:32;;;;;;;;;;;;;;;;;;2618927;47;19939;-74
2021/08/14 05:28:58;;;;;;;;;;;;;;;;;;2619148;54;19939;-75
2021/08/14 05:31:24;;;;;;;;;;;;;;;;;;2618591;47;19939;-76
2021/08/14 05:33:50;;;;;;;;;;;;;;;;;;2619207;39;20351;-75
2021/08/14 05:36:16;;;;;;;;;;;;;;;;;;2619438;54;19938;-75
2021/08/14 05:38:42;;;;;;;;;;;;;;;;;;2619205;54;19939;-74
2021/08/14 05:41:08;;;;;;;;;;;;;;;;;;2619554;54;19983;-74
2021/08/14 05:43:34;;;;;;;;;;;;;;;;;;2618622;47;19967;-75
2021/08/14 05:46:00;;;;;;;;;;;;;;;;;;2619474;54;19959;-74
2021/08/14 05:48:26;;;;;;;;;;;;;;;;;;2618896;47;19951;-75
2021/08/14 05:50:51;;;;;;;;;;;;;;;;;;2619125;54;19945;-75
2021/08/14 05:53:18;;;;;;;;;;;;;;;;;;2619301;54;19946;-75
2021/08/14 05:55:44;;;;;;;;;;;;;;;;;;2619253;54;19946;-75
2021/08/14 05:58:09;;;;;;;;;;;;;;;;;;2619208;54;20411;-74
2021/08/14 06:00:35;;;;;;;;;;;;;;;;;;2618544;47;19939;-74
2021/08/14 06:03:01;;;;;;;;;;;;;;;;;;2618882;54;19939;-73
2021/08/14 06:05:27;;;;;;;;;;;;;;;;;;2619119;54;20450;-73
2021/08/14 06:07:53;;;;;;;;;;;;;;;;;;2619811;54;19943;-74
2021/08/14 06:10:19;;;;;;;;;;;;;;;;;;2619953;54;19935;-73
2021/08/14 06:12:45;;;;;;;;;;;;;;;;;;2620462;39;20318;-75
2021/08/14 06:15:11;;;;;;;;;;;;;;;;;;2619991;54;19946;-73
2021/08/14 06:17:37;;;;;;;;;;;;;;;;;;2619985;54;19969;-74
2021/08/14 06:20:03;;;;;;;;;;;;;;;;;;2620014;54;19954;-75
2021/08/14 06:22:29;;;;;;;;;;;;;;;;;;2619945;39;20317;-74
2021/08/14 06:24:55;;;;;;;;;;;;;;;;;;2620007;54;19939;-74
2021/08/14 06:27:20;;;;;;;;;;;;;;;;;;2619379;46;19938;-74
2021/08/14 06:29:46;;;;;;;;;;;;;;;;;;2619446;46;19963;-74
2021/08/14 06:32:12;;;;;;;;;;;;;;;;;;2621602;39;20353;-74
2021/08/14 06:34:38;;;;;;;;;;;;;;;;;;2619929;54;20046;-74
2021/08/14 06:37:04;;;;;;;;;;;;;;;;;;2620014;54;19946;-73
2021/08/14 06:39:30;;;;;;;;;;;;;;;;;;2619955;54;19934;-74
2021/08/14 06:41:56;;;;;;;;;;;;;;;;;;2619901;54;19938;-73
2021/08/14 06:44:22;;;;;;;;;;;;;;;;;;2619804;54;20414;-74
2021/08/14 06:46:48;;;;;;;;;;;;;;;;;;2619467;46;19942;-74
2021/08/14 06:49:14;;;;;;;;;;;;;;;;;;2620060;54;20406;-74
2021/08/14 06:51:41;;;;;;;;;;;;;;;;;;2620059;54;19946;-74
2021/08/14 06:54:07;;;;;;;;;;;;;;;;;;2619740;54;19938;-75
2021/08/14 06:56:33;;;;;;;;;;;;;;;;;;2619989;54;19945;-74
2021/08/14 06:58:59;;;;;;;;;;;;;;;;;;2619979;54;19939;-75
2021/08/14 07:01:26;;;;;;;;;;;;;;;;;;2619842;54;20403;-74
2021/08/14 07:03:52;;;;;;;;;;;;;;;;;;2619810;54;19963;-74
2021/08/14 07:06:18;;;;;;;;;;;;;;;;;;2620396;39;20329;-73
2021/08/14 07:08:44;;;;;;;;;;;;;;;;;;2619904;54;19939;-73
2021/08/14 07:11:10;;;;;;;;;;;;;;;;;;2619843;39;20322;-74
2021/08/14 07:13:36;;;;;;;;;;;;;;;;;;2619333;54;19945;-74
2021/08/14 07:16:02;;;;;;;;;;;;;;;;;;2619882;54;19946;-75
2021/08/14 07:18:27;;;;;;;;;;;;;;;;;;2619727;54;19938;-74
2021/08/14 07:20:53;;;;;;;;;;;;;;;;;;2619866;54;19946;-74
2021/08/14 07:23:19;;;;;;;;;;;;;;;;;;2619847;54;20067;-74
2021/08/14 07:25:45;;;;;;;;;;;;;;;;;;2619095;47;19934;-75
2021/08/14 07:28:11;;;;;;;;;;;;;;;;;;2619252;47;19939;-75
2021/08/14 07:30:37;;;;;;;;;;;;;;;;;;2619959;54;20396;-74
2021/08/14 07:33:03;;;;;;;;;;;;;;;;;;2619784;54;20033;-75
2021/08/14 07:35:29;;;;;;;;;;;;;;;;;;2619103;47;19939;-75
2021/08/14 07:37:55;;;;;;;;;;;;;;;;;;2619575;39;20330;-75
2021/08/14 07:40:21;;;;;;;;;;;;;;;;;;2619144;47;19943;-74
2021/08/14 07:42:47;;;;;;;;;;;;;;;;;;2619844;54;19973;-76
2021/08/14 07:45:17;;;;;;;;;;;;;;;;;;2619697;54;19934;-73
2021/08/14 07:47:45;;;;;;;;;;;;;;;;;;2619013;47;19935;-74
2021/08/14 07:50:11;;;;;;;;;;;;;;;;;;2619084;46;19962;-74
2021/08/14 07:52:37;;;;;;;;;;;;;;;;;;2619418;54;19939;-75
2021/08/14 07:55:03;;;;;;;;;;;;;;;;;;2618765;47;19950;-73
2021/08/14 07:57:29;;;;;;;;;;;;;;;;;;2618038;46;19939;-74
2021/08/14 07:59:58;;;;;;;;;;;23.40;92.50;;;;;;2618196;47;19946;-74
2021/08/14 08:02:24;;;;;;;;;;;27.30;88.30;;;;;;2618048;54;19943;-74
2021/08/14 08:04:50;;;;;;;;;;;;;;;;;;2618348;54;20026;-74
2021/08/14 08:07:15;;;;;;;;;;;27.40;87.90;;;;;;2618258;47;20426;-74
2021/08/14 08:09:41;;;;;;;;;;;27.80;87.20;;;;;;2618390;54;19934;-74
2021/08/14 08:12:07;;;;;;;;;;;28.00;85.60;;;;;;2618134;46;19935;-74
2021/08/14 08:14:33;;;;;;;;;;;28.00;88.10;;;;;;2618102;54;20054;-74
2021/08/14 08:16:59;;;;;;;;;;;;;;;;;;2618360;54;19938;-73
2021/08/14 08:19:25;;;;;;;;;;;;;;;;;;2618102;54;19942;-73
2021/08/14 08:21:51;;;;;;;;;;;;;;;;;;2618258;54;19942;-74
2021/08/14 08:24:16;;;;;;;;;;;;;;;;;;2618162;54;19955;-74
2021/08/14 08:26:42;;;;;;;;;;;;;;;;;;2618160;47;19934;-74
2021/08/14 08:29:08;;;;;;;;;;;;;;;;;;2619626;39;20306;-74
2021/08/14 08:31:34;;;;;;;;;;;;;;;;;;2619443;54;19946;-74
2021/08/14 08:34:01;;;;;;;;;;;;;;;;;;2619620;54;19941;-75
2021/08/14 08:36:27;;;;;;;;;;;;;;;;;;2619611;54;19934;-74
2021/08/14 08:38:52;;;;;;;;;;;;;;;;;;2619624;54;20430;-75
2021/08/14 08:41:18;;;;;;;;;;;;;;;;;;2619635;54;19935;-75
2021/08/14 08:43:44;;;;;;;;;;;;;;;;;;2619443;54;20060;-74
2021/08/14 08:46:10;;;;;;;;;;;;;;;;;;2619678;54;20059;-74
2021/08/14 08:48:36;;;;;;;;;;;;;;;;;;2619554;54;19935;-74
2021/08/14 08:51:04;;;;;;;;;;;;;;;;;;2619335;54;19938;-74
2021/08/14 08:53:30;;;;;;;;;;;;;;;;;;2619446;54;19938;-72
2021/08/14 08:55:56;;;;;;;;;;;;;;;;;;2619049;54;19942;-71
2021/08/14 08:58:22;;;;;;;;;;;;;;;;;;2619653;39;20306;-74
2021/08/14 09:00:47;;;;;;;;;;;;;;;;;;2619288;54;19938;-74
2021/08/14 09:03:14;;;;;;;;;;;;;;;;;;2619056;54;19938;-74
2021/08/14 09:05:39;;;;;;;;;;;;;;;;;;2619088;54;19934;-74
2021/08/14 09:08:05;;;;;;;;;;;;;;;;;;2619618;39;20334;-74
2021/08/14 09:10:31;;;;;;;;;;;;;;;;;;2618580;47;19969;-74
2021/08/14 09:12:57;;;;;;;;;;;;;;;;;;2619034;54;19946;-74
2021/08/14 09:15:23;;;;;;;;;;;;;;;;;;2618452;54;20411;-74
2021/08/14 09:17:49;;;;;;;;;;;;;;;;;;2618539;47;20014;-76
2021/08/14 09:20:15;;;;;;;;;;;;;;;;;;2618897;54;19939;-75
2021/08/14 09:22:41;;;;;;;;;;;;;;;;;;2619303;54;19994;-74
2021/08/14 09:25:07;;;;;;;;;;;;;;;;;;2618491;47;20419;-73
2021/08/14 09:27:33;;;;;;;;;;;;;;;;;;2618994;54;20046;-72
2021/08/14 09:29:59;;;;;;;;;;;;;;;;;;2618590;47;19946;-73
2021/08/14 09:32:26;;;;;;;;;;;;;;;;;;2618189;47;19938;-74
2021/08/14 09:34:52;;;;;;;;;;;;;;;;;;2618337;47;19957;-74
2021/08/14 09:37:18;;;;;;;;;;;;;;;;;;2619010;54;19951;-72
2021/08/14 09:39:44;;;;;;;;;;;;;;;;;;2618529;47;19991;-73
2021/08/14 09:42:10;;;;;;;;;;;;;;;;;;2619506;54;19938;-73
2021/08/14 09:44:36;;;;;;;;;;;;;;;;;;2619075;47;19935;-74
2021/08/14 09:47:08;;;;;;;;;;;;;;;;;;2619059;47;19939;-74
2021/08/14 09:49:34;;;;;;;;;;;;;;;;;;2619115;51;20403;-73
2021/08/14 09:51:59;;;;;;;;;;;;;;;;;;2620405;54;19959;-73
2021/08/14 09:54:25;;;;;;;;;;;;;;;;;;2619823;54;19935;-72
2021/08/14 09:56:51;;;;;;;;;;;;;;;;;;2620113;39;19993;-73
2021/08/14 09:59:17;;;;;;;;;;;;;;;;;;2619461;54;19939;-72
2021/08/14 10:01:43;;;;;;;;;;;;;;;;;;2619470;54;19938;-72
2021/08/14 10:04:10;;;;;;;;;;;28.10;85.60;;;;;;2619543;54;19946;-72
2021/08/14 10:06:36;;;;;;;;;;;;;;;;;;2619394;54;19935;-71
2021/08/14 10:09:02;;;;;;;;;;;;;;;;;;2619122;54;19965;-72
2021/08/14 10:11:28;;;;;;;;;;;;;;;;;;2619262;54;20441;-72
2021/08/14 10:13:54;;;;;;;;;;;;;;;;;;2619183;54;19939;-72
2021/08/14 10:16:20;;;;;;;;;;;;;;;;;;2619003;54;19957;-70
2021/08/14 10:18:46;;;;;;;;;;;;;;;;;;2618977;54;19935;-71
2021/08/14 10:21:14;;;;;;;;;;;31.90;87.90;;;;;;2619005;54;19963;-72
2021/08/14 10:23:41;;;;;;;;;;;32.30;87.90;;;;;;2616904;54;19935;-71
2021/08/14 10:26:08;;;;;;;;;;;32.30;87.80;;;;;;2617724;47;19939;-72
2021/08/14 10:28:41;;;;;;;;;;;32.30;87.60;;;;;;2618050;54;19943;-71
2021/08/14 10:31:06;;;;;;;;;;;32.10;88.00;;;;;;2617805;47;19946;-71
2021/08/14 10:33:35;;;;;;;;;;;32.00;89.40;;;;;;2618362;54;19946;-71
2021/08/14 10:36:15;;;;;;;;;;;31.90;90.00;;;;;;2617645;47;19938;-71
2021/08/14 10:38:43;;;;;;;;;;;31.90;90.20;;;;;;2617386;54;20407;-72
2021/08/14 10:41:09;;;;;;;;;;;31.90;91.30;;;;;;2618282;54;19971;-71
2021/08/14 10:43:50;;;;;;;;;;;32.10;89.80;;;;;;2618325;54;19945;-71
2021/08/14 10:46:16;;;;;;;;;;;;;;;;;;2618152;54;20057;-72
2021/08/14 10:48:42;;;;;;;;;;;;;;;;;;2617604;54;19939;-71
2021/08/14 10:51:07;;;;;;;;;;;;;;;;;;2617716;54;19959;-71
2021/08/14 10:53:33;;;;;;;;;;;;;;;;;;2616790;47;19982;-72
2021/08/14 10:55:59;;;;;;;;;;;;;;;;;;2618159;54;20018;-71
2021/08/14 10:58:25;;;;;;;;;;;;;;;;;;2618144;54;19935;-71
2021/08/14 11:00:51;;;;;;;;;;;;;;;;;;2618068;54;20403;-71
2021/08/14 11:03:17;;;;;;;;;;;;;;;;;;2617581;47;19958;-71
2021/08/14 11:05:43;;;;;;;;;;;;;;;;;;2618099;54;19938;-72
2021/08/14 11:08:09;;;;;;;;;;;;;;;;;;2617918;54;19934;-71
2021/08/14 11:10:35;;;;;;;;;;;;;;;;;;2618085;54;19958;-71
2021/08/14 11:13:01;;;;;;;;;;;;;;;;;;2618143;54;19942;-71
2021/08/14 11:15:28;;;;;;;;;;;;;;;;;;2618625;39;20361;-72
2021/08/14 11:17:54;;;;;;;;;;;;;;;;;;2617872;54;19942;-73
2021/08/14 11:20:20;;;;;;;;;;;;;;;;;;2618710;39;20032;-72
2021/08/14 11:22:46;;;;;;;;;;;;;;;;;;2617971;54;20364;-71
2021/08/14 11:25:12;;;;;;;;;;;;;;;;;;2618387;54;19941;-71
2021/08/14 11:27:38;;;;;;;;;;;;;;;;;;2616854;46;19935;-71
2021/08/14 11:30:04;;;;;;;;;;;;;;;;;;2618092;54;19958;-72
2021/08/14 11:32:30;;;;;;;;;;;;;;;;;;2618020;54;19966;-73
2021/08/14 11:34:56;;;;;;;;;;;;;;;;;;2618447;39;20323;-72
2021/08/14 11:37:22;;;;;;;;;;;;;;;;;;2618015;54;20039;-71
2021/08/14 11:39:48;;;;;;;;;;;;;;;;;;2617311;54;20457;-71
2021/08/14 11:42:14;;;;;;;;;;;;;;;;;;2618118;54;19942;-72
2021/08/14 11:44:40;;;;;;;;;;;;;;;;;;2617836;54;19965;-71
2021/08/14 11:47:06;;;;;;;;;;;;;;;;;;2617598;54;20030;-71
2021/08/14 11:49:32;;;;;;;;;;;;;;;;;;2617891;54;19934;-71
2021/08/14 11:51:57;;;;;;;;;;;;;;;;;;2617473;47;20415;-72
2021/08/14 11:54:23;;;;;;;;;;;;;;;;;;2618305;54;19946;-73
2021/08/14 11:56:49;;;;;;;;;;;;;;;;;;2618140;54;19946;-72
2021/08/14 11:59:29;;;;;;;;;;;32.30;90.50;;;;;;2617483;54;19938;-72
2021/08/14 12:01:55;;;;;;;;;;;;;;;;;;2618244;54;19970;-72
2021/08/14 12:04:20;;;;;;;;;;;;;;;;;;2618073;54;19942;-71
2021/08/14 12:06:47;;;;;;;;;;;;;;;;;;2618059;54;19938;-71
2021/08/14 12:09:13;;;;;;;;;;;;;;;;;;2617772;54;19985;-71
2021/08/14 12:11:40;;;;;;;;;;;;;;;;;;2617260;46;20018;-71
2021/08/14 12:14:06;;;;;;;;;;;;;;;;;;2617550;54;19941;-71
2021/08/14 12:16:32;;;;;;;;;;;;;;;;;;2618177;54;19950;-70
2021/08/14 12:18:58;;;;;;;;;;;;;;;;;;2618201;54;19934;-71
2021/08/14 12:21:24;;;;;;;;;;;;;;;;;;2617555;47;19942;-71
2021/08/14 12:23:50;;;;;;;;;;;;;;;;;;2617589;54;19959;-72
2021/08/14 12:26:16;;;;;;;;;;;;;;;;;;2617689;54;20006;-70
2021/08/14 12:28:43;;;;;;;;;;;33.70;85.10;;;;;;2617635;54;19951;-70
2021/08/14 12:31:16;;;;;;;;;;;34.50;80.70;;;;;;2617938;54;19935;-71
2021/08/14 12:33:45;;;;;;;;;;;34.50;80.80;;;;;;2617940;47;20054;-71
2021/08/14 12:36:11;;;;;;;;;;;;;;;;;;2618298;39;20310;-73
2021/08/14 12:38:37;;;;;;;;;;;;;;;;;;2617872;54;19981;-72
2021/08/14 12:41:03;;;;;;;;;;;;;;;;;;2617393;47;19946;-71
2021/08/14 12:43:29;;;;;;;;;;;;;;;;;;2618188;54;19943;-72
2021/08/14 12:45:55;;;;;;;;;;;;;;;;;;2617242;47;20421;-71
2021/08/14 12:48:21;;;;;;;;;;;;;;;;;;2617948;54;19941;-72
2021/08/14 12:50:47;;;;;;;;;;;;;;;;;;2617657;39;20061;-71
2021/08/14 12:53:13;;;;;;;;;;;;;;;;;;2617902;54;19934;-72
2021/08/14 12:55:39;;;;;;;;;;;;;;;;;;2617739;54;19946;-72
2021/08/14 12:58:05;;;;;;;;;;;;;;;;;;2617387;54;19934;-73
2021/08/14 13:00:31;;;;;;;;;;;;;;;;;;2617561;47;20430;-71
2021/08/14 13:02:58;;;;;;;;;;;34.50;80.80;;;;;;2617662;54;19977;-73
2021/08/14 13:05:24;;;;;;;;;;;;;;;;;;2618210;39;20356;-72
2021/08/14 13:07:53;;;;;;;;;;;;;;;;;;2614861;54;19935;-71
2021/08/14 13:10:19;;;;;;;;;;;;;;;;;;2617937;54;19982;-72
2021/08/14 13:12:45;;;;;;;;;;;;;;;;;;2612852;48;19946;-70
2021/08/14 13:15:11;;;;;;;;;;;;;;;;;;2617539;54;19943;-71
2021/08/14 13:17:37;;;;;;;;;;;;;;;;;;2617288;51;19997;-71
2021/08/14 13:20:05;;;;;;;;;;;35.50;81.60;;;;;;2617745;54;19934;-71
2021/08/14 13:22:31;;;;;;;;;;;36.00;76.60;;;;;;2616660;54;19934;-70
2021/08/14 13:24:56;;;;;;;;;;;36.00;75.50;;;;;;2617632;54;19996;-71
2021/08/14 13:27:22;;;;;;;;;;;36.10;75.80;;;;;;2617557;54;19987;-71
2021/08/14 13:29:48;;;;;;;;;;;36.10;75.70;;;;;;2617201;47;19958;-71
2021/08/14 13:32:14;;;;;;;;;;;36.20;75.30;;;;;;2617838;54;19942;-71
2021/08/14 13:34:39;;;;;;;;;;;36.30;74.40;;;;;;2617375;54;20431;-71
2021/08/14 13:37:06;;;;;;;;;;;36.40;74.50;;;;;;2617459;54;19935;-71
2021/08/14 13:39:32;;;;;;;;;;;36.50;73.30;;;;;;2615370;47;20943;-70
2021/08/14 13:41:58;;;;;;;;;;;36.50;73.40;;;;;;2617366;54;19982;-71
2021/08/14 13:44:24;;;;;;;;;;;36.40;76.00;;;;;;2616828;54;20026;-71
2021/08/14 13:46:49;;;;;;;;;;;36.40;76.00;;;;;;2617785;39;20346;-71
2021/08/14 13:49:15;;;;;;;;;;;36.50;77.10;;;;;;2616886;47;20495;-71
2021/08/14 13:51:41;;;;;;;;;;;36.50;74.80;;;;;;2617215;54;19935;-73
2021/08/14 13:54:09;;;;;;;;;;;36.60;74.60;;;;;;2617192;54;19947;-71
2021/08/14 13:56:35;;;;;;;;;;;36.70;73.70;;;;;;2617178;54;19942;-72
2021/08/14 13:59:01;;;;;;;;;;;36.70;71.80;;;;;;2616600;47;20490;-72
2021/08/14 14:01:27;;;;;;;;;;;;;;;;;;2617086;54;20403;-72
2021/08/14 14:03:52;;;;;;;;;;;;;;;;;;2617594;39;20387;-71
2021/08/14 14:06:19;;;;;;;;;;;;;;;;;;2617384;54;19935;-72
2021/08/14 14:08:45;;;;;;;;;;;;;;;;;;2617230;54;20002;-72
2021/08/14 14:11:10;;;;;;;;;;;;;;;;;;2617163;54;20399;-72
2021/08/14 14:13:36;;;;;;;;;;;;;;;;;;2617627;54;19958;-71
2021/08/14 14:16:02;;;;;;;;;;;;;;;;;;2617455;54;19950;-72
2021/08/14 14:18:29;;;;;;;;;;;36.80;72.20;;;;;;2617796;54;19935;-72
2021/08/14 14:20:55;;;;;;;;;;;;;;;;;;2617601;54;19946;-73
2021/08/14 14:23:21;;;;;;;;;;;;;;;;;;2616403;47;19935;-72
2021/08/14 14:25:47;;;;;;;;;;;;;;;;;;2617351;47;20414;-72
2021/08/14 14:28:13;;;;;;;;;;;;;;;;;;2618112;54;19943;-72
2021/08/14 14:30:39;;;;;;;;;;;;;;;;;;2618642;54;19942;-71
2021/08/14 14:33:05;;;;;;;;;;;;;;;;;;2618444;54;19935;-72
2021/08/14 14:35:31;;;;;;;;;;;;;;;;;;2618189;54;19947;-71
2021/08/14 14:37:57;;;;;;;;;;;;;;;;;;2618387;54;19983;-72
2021/08/14 14:40:23;;;;;;;;;;;;;;;;;;2618174;48;19944;-71
2021/08/14 14:42:49;;;;;;;;;;;;;;;;;;2618317;54;19975;-72
2021/08/14 14:45:15;;;;;;;;;;;;;;;;;;2618402;54;19935;-72
2021/08/14 14:47:41;;;;;;;;;;;;;;;;;;2618143;54;19934;-71
2021/08/14 14:50:08;;;;;;;;;;;37.20;71.80;;;;;;2617824;54;19947;-72
2021/08/14 14:52:34;;;;;;;;;;;37.10;69.40;;;;;;2617352;54;19959;-71
2021/08/14 14:55:03;;;;;;;;;;;;;;;;;;2618495;54;19947;-71
2021/08/14 14:57:29;;;;;;;;;;;;;;;;;;2617515;49;19935;-73
2021/08/14 14:59:55;;;;;;;;;;;37.10;72.20;;;;;;2618081;54;19942;-72
2021/08/14 15:02:21;;;;;;;;;;;;;;;;;;2617455;47;19997;-71
2021/08/14 15:04:47;;;;;;;;;;;;;;;;;;2617997;54;20406;-71
2021/08/14 15:07:13;;;;;;;;;;;;;;;;;;2617822;54;19934;-74
2021/08/14 15:09:40;;;;;;;;;;;37.50;71.30;;;;;;2617548;54;19939;-72
2021/08/14 15:12:06;;;;;;;;;;;;;;;;;;2618145;54;19959;-72
2021/08/14 15:14:32;;;;;;;;;;;;;;;;;;2618127;54;19934;-72
2021/08/14 15:16:58;;;;;;;;;;;;;;;;;;2617606;54;19935;-72
2021/08/14 15:19:24;;;;;;;;;;;;;;;;;;2616826;47;19942;-72
2021/08/14 15:21:50;;;;;;;;;;;;;;;;;;2617845;54;19934;-72
2021/08/14 15:24:15;;;;;;;;;;;;;;;;;;2617799;54;20027;-72
2021/08/14 15:26:41;;;;;;;;;;;;;;;;;;2618472;31;20433;-72
2021/08/14 15:29:07;;;;;;;;;;;;;;;;;;2617709;54;19935;-73
2021/08/14 15:31:33;;;;;;;;;;;;;;;;;;2617828;54;20479;-72
2021/08/14 15:33:59;;;;;;;;;;;;;;;;;;2617728;54;20483;-72
2021/08/14 15:36:25;;;;;;;;;;;;;;;;;;2617605;54;19946;-71
2021/08/14 15:38:51;;;;;;;;;;;;;;;;;;2618442;31;20427;-73
2021/08/14 15:41:17;;;;;;;;;;;;;;;;;;2617757;54;19941;-71
2021/08/14 15:43:43;;;;;;;;;;;;;;;;;;2617821;54;19962;-71
2021/08/14 15:46:09;;;;;;;;;;;;;;;;;;2617081;47;19954;-72
2021/08/14 15:48:35;;;;;;;;;;;;;;;;;;2618028;54;20442;-72
2021/08/14 15:51:03;;;;;;;;;;;;;;;;;;2617868;54;19942;-72
2021/08/14 15:53:30;;;;;;;;;;;37.80;70.60;;;;;;2617642;54;19941;-72
2021/08/14 15:55:56;;;;;;;;;;;37.30;70.80;;;;;;2618069;54;19946;-72
2021/08/14 15:58:21;;;;;;;;;;;37.30;71.20;;;;;;2618110;54;19939;-73
2021/08/14 16:00:47;;;;;;;;;;;37.30;69.60;;;;;;2617381;47;19934;-72
2021/08/14 16:03:13;;;;;;;;;;;37.50;69.80;;;;;;2618243;54;20445;-73
2021/08/14 16:05:39;;;;;;;;;;;37.50;70.50;;;;;;2618889;54;19939;-74
2021/08/14 16:08:05;;;;;;;;;;;37.30;71.60;;;;;;2618940;54;19935;-74
2021/08/14 16:10:32;;;;;;;;;;;37.10;71.10;;;;;;2619044;54;20442;-74
2021/08/14 16:12:58;;;;;;;;;;;;;;;;;;2618992;54;19935;-73
2021/08/14 16:15:24;;;;;;;;;;;;;;;;;;2619130;54;19967;-73
2021/08/14 16:17:50;;;;;;;;;;;;;;;;;;2618860;54;19969;-73